createdAt,value
2023-11-01T00:01:29.018Z,100.00
2023-11-01T00:03:56.566Z,100.00
2023-11-01T00:06:24.393Z,100.00
2023-11-01T00:08:51.695Z,100.00
2023-11-01T00:11:19.337Z,100.00
2023-11-01T00:13:46.724Z,100.00
2023-11-01T00:16:14.249Z,100.00
2023-11-01T00:18:41.489Z,100.00
2023-11-01T00:21:09.208Z,100.00
2023-11-01T00:23:36.812Z,100.00
2023-11-01T00:26:04.723Z,100.00
2023-11-01T00:28:31.914Z,100.00
2023-11-01T00:30:59.592Z,100.00
2023-11-01T00:33:28.650Z,100.00
2023-11-01T00:35:56.332Z,100.00
2023-11-01T00:38:24.376Z,100.00
2023-11-01T00:40:52.406Z,100.00
2023-11-01T00:43:19.993Z,100.00
2023-11-01T00:45:47.818Z,100.00
2023-11-01T00:48:17.984Z,100.00
2023-11-01T00:50:47.206Z,100.00
2023-11-01T00:53:15.830Z,100.00
2023-11-01T00:55:48.989Z,100.00
2023-11-01T00:58:16.280Z,100.00
2023-11-01T01:00:44.034Z,100.00
2023-11-01T01:03:12.602Z,100.00
2023-11-01T01:05:40.253Z,100.00
2023-11-01T01:08:07.469Z,100.00
2023-11-01T01:10:35.116Z,100.00
2023-11-01T01:13:02.796Z,100.00
2023-11-01T01:15:30.618Z,100.00
2023-11-01T01:17:59.503Z,100.00
2023-11-01T01:20:27.735Z,100.00
2023-11-01T01:23:14.792Z,100.00
2023-11-01T01:25:42.556Z,100.00
2023-11-01T01:28:11.004Z,100.00
2023-11-01T01:30:38.562Z,100.00
2023-11-01T01:33:05.945Z,100.00
2023-11-01T01:35:33.733Z,100.00
2023-11-01T01:38:01.697Z,100.00
2023-11-01T01:40:29.788Z,100.00
2023-11-01T01:43:20.301Z,100.00
2023-11-01T01:46:00.219Z,100.00
2023-11-01T01:48:27.710Z,100.00
2023-11-01T01:50:56.417Z,100.00
2023-11-01T01:53:24.102Z,100.00
2023-11-01T01:55:52.320Z,100.00
2023-11-01T01:58:19.777Z,100.00
2023-11-01T02:00:49.073Z,100.00
2023-11-01T02:03:16.671Z,100.00
2023-11-01T02:05:44.519Z,100.00
2023-11-01T02:08:11.973Z,100.00
2023-11-01T02:10:40.153Z,100.00
2023-11-01T02:13:15.373Z,100.00
2023-11-01T02:15:44.614Z,100.00
2023-11-01T02:18:13.245Z,100.00
2023-11-01T02:20:42.732Z,100.00
2023-11-01T02:23:11.918Z,100.00
2023-11-01T02:25:40.495Z,100.00
2023-11-01T02:28:11.450Z,100.00
2023-11-01T02:30:41.282Z,100.00
2023-11-01T02:33:09.479Z,100.00
2023-11-01T02:35:37.061Z,100.00
2023-11-01T02:38:04.497Z,100.00
2023-11-01T02:40:32.484Z,100.00
2023-11-01T02:42:59.977Z,100.00
2023-11-01T02:45:28.587Z,100.00
2023-11-01T02:47:57.463Z,100.00
2023-11-01T02:50:25.144Z,100.00
2023-11-01T02:52:52.463Z,100.00
2023-11-01T02:55:20.142Z,100.00
2023-11-01T02:57:47.447Z,100.00
2023-11-01T03:00:22.205Z,100.00
2023-11-01T03:02:50.742Z,100.00
2023-11-01T03:05:18.684Z,100.00
2023-11-01T03:07:46.109Z,100.00
2023-11-01T03:10:13.812Z,100.00
2023-11-01T03:12:42.091Z,100.00
2023-11-01T03:15:10.111Z,100.00
2023-11-01T03:17:38.074Z,100.00
2023-11-01T03:20:09.084Z,100.00
2023-11-01T03:22:36.561Z,100.00
2023-11-01T03:25:05.128Z,100.00
2023-11-01T03:27:32.465Z,100.00
2023-11-01T03:29:59.999Z,100.00
2023-11-01T03:32:27.408Z,100.00
2023-11-01T03:34:55.163Z,100.00
2023-11-01T03:37:22.467Z,100.00
2023-11-01T03:39:50.130Z,100.00
2023-11-01T03:42:18.072Z,100.00
2023-11-01T03:44:48.717Z,100.00
2023-11-01T03:47:18.599Z,100.00
2023-11-01T03:49:46.339Z,100.00
2023-11-01T03:52:13.501Z,100.00
2023-11-01T03:54:41.088Z,100.00
2023-11-01T03:57:08.412Z,100.00
2023-11-01T03:59:36.710Z,100.00
2023-11-01T04:02:04.262Z,100.00
2023-11-01T04:04:31.961Z,100.00
2023-11-01T04:06:59.208Z,100.00
2023-11-01T04:09:27.003Z,100.00
2023-11-01T04:11:55.754Z,100.00
2023-11-01T04:14:23.299Z,100.00
2023-11-01T04:16:50.613Z,100.00
2023-11-01T04:19:18.752Z,100.00
2023-11-01T04:21:46.001Z,100.00
2023-11-01T04:24:13.584Z,100.00
2023-11-01T04:26:41.220Z,100.00
2023-11-01T04:29:09.146Z,100.00
2023-11-01T04:31:36.739Z,100.00
2023-11-01T04:34:04.278Z,100.00
2023-11-01T04:36:31.535Z,100.00
2023-11-01T04:38:59.469Z,100.00
2023-11-01T04:41:29.323Z,100.00
2023-11-01T04:43:57.231Z,100.00
2023-11-01T04:46:24.759Z,100.00
2023-11-01T04:48:52.359Z,100.00
2023-11-01T04:51:19.576Z,100.00
2023-11-01T04:53:47.880Z,100.00
2023-11-01T04:56:15.176Z,100.00
2023-11-01T04:58:42.810Z,100.00
2023-11-01T05:01:10.258Z,100.00
2023-11-01T05:03:39.049Z,100.00
2023-11-01T05:06:07.551Z,100.00
2023-11-01T05:08:38.392Z,100.00
2023-11-01T05:11:06.513Z,100.00
2023-11-01T05:13:34.364Z,100.00
2023-11-01T05:16:01.757Z,100.00
2023-11-01T05:18:29.541Z,100.00
2023-11-01T05:20:56.946Z,100.00
2023-11-01T05:23:24.613Z,100.00
2023-11-01T05:25:51.780Z,100.00
2023-11-01T05:28:19.408Z,100.00
2023-11-01T05:30:47.716Z,100.00
2023-11-01T05:33:16.121Z,100.00
2023-11-01T05:35:43.981Z,100.00
2023-11-01T05:38:11.727Z,100.00
2023-11-01T05:40:39.374Z,100.00
2023-11-01T05:43:07.068Z,100.00
2023-11-01T05:45:35.295Z,100.00
2023-11-01T05:48:10.177Z,100.00
2023-11-01T05:50:38.391Z,100.00
2023-11-01T05:53:10.922Z,100.00
2023-11-01T05:55:54.067Z,100.00
2023-11-01T05:58:27.653Z,100.00
2023-11-01T06:00:55.163Z,100.00
2023-11-01T06:03:26.584Z,100.00
2023-11-01T06:05:54.366Z,100.00
2023-11-01T06:08:21.973Z,100.00
2023-11-01T06:10:49.491Z,100.00
2023-11-01T06:13:17.052Z,100.00
2023-11-01T06:15:44.892Z,100.00
2023-11-01T06:18:12.826Z,100.00
2023-11-01T06:20:40.330Z,100.00
2023-11-01T06:23:10.724Z,100.00
2023-11-01T06:25:38.542Z,100.00
2023-11-01T06:28:06.072Z,100.00
2023-11-01T06:30:33.247Z,100.00
2023-11-01T06:33:00.955Z,100.00
2023-11-01T06:35:29.517Z,100.00
2023-11-01T06:37:57.092Z,100.00
2023-11-01T06:40:24.705Z,100.00
2023-11-01T06:42:52.831Z,100.00
2023-11-01T06:45:20.176Z,100.00
2023-11-01T06:47:48.469Z,100.00
2023-11-01T06:50:15.888Z,100.00
2023-11-01T06:52:46.723Z,100.00
2023-11-01T06:55:17.632Z,100.00
2023-11-01T06:57:45.846Z,100.00
2023-11-01T07:00:15.171Z,100.00
2023-11-01T07:02:44.122Z,100.00
2023-11-01T07:05:11.623Z,100.00
2023-11-01T07:07:39.818Z,100.00
2023-11-01T07:10:09.272Z,100.00
2023-11-01T07:12:40.581Z,100.00
2023-11-01T07:15:09.805Z,100.00
2023-11-01T07:17:37.988Z,100.00
2023-11-01T07:20:09.610Z,100.00
2023-11-01T07:22:37.509Z,100.00
2023-11-01T07:25:05.605Z,100.00
2023-11-01T07:27:33.314Z,100.00
2023-11-01T07:30:01.003Z,100.00
2023-11-01T07:32:28.772Z,100.00
2023-11-01T07:34:56.051Z,100.00
2023-11-01T07:37:25.652Z,100.00
2023-11-01T07:39:52.812Z,100.00
2023-11-01T07:42:20.421Z,100.00
2023-11-01T07:44:47.945Z,100.00
2023-11-01T07:47:15.611Z,100.00
2023-11-01T07:49:42.896Z,100.00
2023-11-01T07:52:11.121Z,100.00
2023-11-01T07:54:38.330Z,100.00
2023-11-01T07:57:05.955Z,100.00
2023-11-01T07:59:33.293Z,100.00
2023-11-01T08:02:02.148Z,100.00
2023-11-01T08:04:30.105Z,100.00
2023-11-01T08:06:58.040Z,100.00
2023-11-01T08:09:28.616Z,100.00
2023-11-01T08:11:56.282Z,92.08
2023-11-01T08:14:23.704Z,81.73
2023-11-01T08:16:51.290Z,76.30
2023-11-01T08:19:18.499Z,73.88
2023-11-01T08:21:46.053Z,74.90
2023-11-01T08:24:13.595Z,73.92
2023-11-01T08:26:41.780Z,73.49
2023-11-01T08:29:11.232Z,64.49
2023-11-01T08:31:38.977Z,69.75
2023-11-01T08:34:06.315Z,65.99
2023-11-01T08:36:33.914Z,61.29
2023-11-01T08:39:01.115Z,58.72
2023-11-01T08:41:31.330Z,56.95
2023-11-01T08:43:58.787Z,56.19
2023-11-01T08:46:26.367Z,55.81
2023-11-01T08:48:54.496Z,54.84
2023-11-01T08:51:22.165Z,56.48
2023-11-01T08:53:49.478Z,53.94
2023-11-01T08:56:18.536Z,54.49
2023-11-01T08:58:47.930Z,56.84
2023-11-01T09:01:18.012Z,54.31
2023-11-01T09:03:47.541Z,54.74
2023-11-01T09:06:16.694Z,53.64
2023-11-01T09:08:47.658Z,51.95
2023-11-01T09:11:17.384Z,52.84
2023-11-01T09:13:47.578Z,49.26
2023-11-01T09:16:15.217Z,48.50
2023-11-01T09:18:44.990Z,48.26
2023-11-01T09:21:16.826Z,47.70
2023-11-01T09:23:46.627Z,48.73
2023-11-01T09:26:16.698Z,53.69
2023-11-01T09:28:45.160Z,49.42
2023-11-01T09:31:12.800Z,49.66
2023-11-01T09:33:40.287Z,50.52
2023-11-01T09:36:12.618Z,49.94
2023-11-01T09:38:41.127Z,46.32
2023-11-01T09:41:11.324Z,46.96
2023-11-01T09:43:41.272Z,49.78
2023-11-01T09:46:13.194Z,46.85
2023-11-01T09:48:43.607Z,52.91
2023-11-01T09:51:12.108Z,48.33
2023-11-01T09:53:39.561Z,48.66
2023-11-01T09:56:07.588Z,46.32
2023-11-01T09:58:35.391Z,45.22
2023-11-01T10:01:03.475Z,43.48
2023-11-01T10:03:30.867Z,48.03
2023-11-01T10:05:58.544Z,48.33
2023-11-01T10:08:26.003Z,46.37
2023-11-01T10:10:53.645Z,46.22
2023-11-01T10:13:21.195Z,43.67
2023-11-01T10:15:51.461Z,45.93
2023-11-01T10:18:18.816Z,45.28
2023-11-01T10:20:47.795Z,44.17
2023-11-01T10:23:15.388Z,43.37
2023-11-01T10:25:46.430Z,41.06
2023-11-01T10:28:16.491Z,42.62
2023-11-01T10:30:47.289Z,40.83
2023-11-01T10:33:16.072Z,41.97
2023-11-01T10:35:43.804Z,40.82
2023-11-01T10:38:11.189Z,39.55
2023-11-01T10:40:40.155Z,39.63
2023-11-01T10:43:08.637Z,38.32
2023-11-01T10:45:36.350Z,36.68
2023-11-01T10:48:06.464Z,38.09
2023-11-01T10:50:35.702Z,39.61
2023-11-01T10:53:04.242Z,38.62
2023-11-01T10:55:32.975Z,41.10
2023-11-01T10:58:00.959Z,41.38
2023-11-01T11:00:44.704Z,39.46
2023-11-01T11:03:34.153Z,39.05
2023-11-01T11:06:11.118Z,41.20
2023-11-01T11:08:38.534Z,43.43
2023-11-01T11:11:18.501Z,40.28
2023-11-01T11:13:52.454Z,38.53
2023-11-01T11:16:22.363Z,38.82
2023-11-01T11:18:51.440Z,40.58
2023-11-01T11:22:00.590Z,42.30
2023-11-01T11:24:46.041Z,41.63
2023-11-01T11:28:03.513Z,42.50
2023-11-01T11:31:10.172Z,41.63
2023-11-01T11:33:44.967Z,43.14
2023-11-01T11:36:20.280Z,44.24
2023-11-01T11:38:49.202Z,44.76
2023-11-01T11:41:25.620Z,41.81
2023-11-01T11:44:00.296Z,43.48
2023-11-01T11:46:31.675Z,42.65
2023-11-01T11:49:03.107Z,43.09
2023-11-01T11:51:31.347Z,45.92
2023-11-01T11:53:58.915Z,43.52
2023-11-01T11:56:26.426Z,43.26
2023-11-01T11:58:54.681Z,44.99
2023-11-01T12:04:53.927Z,42.51
2023-11-01T12:07:22.716Z,44.38
2023-11-01T12:09:51.918Z,41.29
2023-11-01T12:12:20.289Z,43.34
2023-11-01T12:15:01.391Z,40.95
2023-11-01T12:17:30.260Z,40.78
2023-11-01T12:19:58.392Z,41.04
2023-11-01T12:22:26.574Z,42.19
2023-11-01T12:24:56.790Z,42.22
2023-11-01T12:27:33.572Z,42.75
2023-11-01T12:30:02.154Z,43.99
2023-11-01T12:32:43.225Z,43.85
2023-11-01T12:35:12.478Z,43.44
2023-11-01T12:37:43.395Z,42.98
2023-11-01T12:40:18.485Z,42.78
2023-11-01T12:42:51.495Z,43.22
2023-11-01T12:45:21.435Z,43.27
2023-11-01T12:47:54.432Z,40.94
2023-11-01T12:50:26.182Z,42.92
2023-11-01T12:52:54.818Z,46.05
2023-11-01T12:55:22.388Z,44.67
2023-11-01T12:58:01.034Z,44.40
2023-11-01T13:00:30.399Z,44.96
2023-11-01T13:02:58.703Z,45.06
2023-11-01T13:05:27.091Z,45.41
2023-11-01T13:07:58.364Z,45.10
2023-11-01T13:10:26.356Z,45.36
2023-11-01T13:12:54.076Z,46.71
2023-11-01T13:15:21.848Z,45.34
2023-11-01T13:17:50.282Z,45.29
2023-11-01T13:20:18.084Z,46.57
2023-11-01T13:22:46.001Z,46.42
2023-11-01T13:25:13.591Z,47.13
2023-11-01T13:27:41.891Z,46.50
2023-11-01T13:30:11.162Z,44.19
2023-11-01T13:32:40.236Z,46.66
2023-11-01T13:35:08.598Z,46.18
2023-11-01T13:37:36.943Z,47.98
2023-11-01T13:40:10.824Z,50.18
2023-11-01T13:42:38.761Z,51.08
2023-11-01T13:45:06.559Z,50.38
2023-11-01T13:47:34.586Z,49.75
2023-11-01T13:50:02.114Z,49.68
2023-11-01T13:52:29.770Z,50.39
2023-11-01T13:54:57.220Z,51.50
2023-11-01T13:57:24.942Z,53.24
2023-11-01T13:59:52.267Z,54.04
2023-11-01T14:02:23.582Z,52.54
2023-11-01T14:04:51.155Z,54.90
2023-11-01T14:07:18.777Z,54.15
2023-11-01T14:09:46.129Z,55.05
2023-11-01T14:12:13.494Z,54.27
2023-11-01T14:14:41.607Z,52.96
2023-11-01T14:17:09.016Z,52.80
2023-11-01T14:19:37.312Z,53.47
2023-11-01T14:22:06.059Z,54.56
2023-11-01T14:24:33.879Z,54.55
2023-11-01T14:27:03.600Z,55.53
2023-11-01T14:29:33.612Z,56.41
2023-11-01T14:32:01.019Z,56.87
2023-11-01T14:34:29.323Z,58.23
2023-11-01T14:36:57.725Z,58.21
2023-11-01T14:39:26.327Z,56.82
2023-11-01T14:41:53.950Z,59.39
2023-11-01T14:44:21.786Z,60.26
2023-11-01T14:46:49.157Z,61.55
2023-11-01T14:52:08.587Z,62.80
2023-11-01T14:54:36.248Z,63.26
2023-11-01T14:57:04.113Z,60.26
2023-11-01T14:59:31.974Z,61.07
2023-11-01T15:02:03.456Z,61.31
2023-11-01T15:04:31.284Z,64.24
2023-11-01T15:06:58.949Z,63.81
2023-11-01T15:09:26.661Z,63.28
2023-11-01T15:11:54.157Z,62.95
2023-11-01T15:14:21.814Z,66.42
2023-11-01T15:16:50.843Z,64.31
2023-11-01T15:19:18.684Z,65.59
2023-11-01T15:21:46.382Z,63.80
2023-11-01T15:24:15.087Z,65.46
2023-11-01T15:26:46.673Z,65.93
2023-11-01T15:29:14.523Z,66.69
2023-11-01T15:31:42.634Z,67.40
2023-11-01T15:34:10.363Z,67.41
2023-11-01T15:36:38.126Z,67.36
2023-11-01T15:39:08.189Z,67.38
2023-11-01T15:41:35.681Z,68.01
2023-11-01T15:44:03.670Z,69.25
2023-11-01T15:46:31.010Z,70.07
2023-11-01T15:48:58.619Z,68.86
2023-11-01T15:51:26.579Z,68.76
2023-11-01T15:53:54.314Z,71.23
2023-11-01T15:56:22.124Z,71.74
2023-11-01T15:58:49.935Z,69.16
2023-11-01T16:01:17.905Z,69.10
2023-11-01T16:03:45.979Z,71.93
2023-11-01T16:06:13.538Z,71.11
2023-11-01T16:08:41.958Z,69.71
2023-11-01T16:11:12.477Z,72.49
2023-11-01T16:13:43.379Z,71.32
2023-11-01T16:16:11.532Z,72.08
2023-11-01T16:18:39.441Z,74.13
2023-11-01T16:21:07.106Z,76.20
2023-11-01T16:23:35.126Z,73.84
2023-11-01T16:26:02.406Z,76.04
2023-11-01T16:28:30.930Z,76.85
2023-11-01T16:30:58.465Z,75.91
2023-11-01T16:33:26.586Z,79.41
2023-11-01T16:35:54.097Z,75.41
2023-11-01T16:38:21.793Z,76.65
2023-11-01T16:40:49.293Z,78.50
2023-11-01T16:43:17.471Z,77.40
2023-11-01T16:45:44.890Z,78.11
2023-11-01T16:48:12.670Z,81.21
2023-11-01T16:50:40.172Z,80.94
2023-11-01T16:53:10.813Z,79.88
2023-11-01T16:55:45.534Z,81.43
2023-11-01T16:58:14.250Z,80.84
2023-11-01T17:00:41.624Z,82.05
2023-11-01T17:03:09.750Z,80.51
2023-11-01T17:05:38.685Z,81.60
2023-11-01T17:08:07.380Z,83.21
2023-11-01T17:10:35.154Z,82.78
2023-11-01T17:13:02.760Z,82.75
2023-11-01T17:15:30.104Z,81.96
2023-11-01T17:17:58.428Z,83.15
2023-11-01T17:20:26.464Z,81.90
2023-11-01T17:22:54.323Z,82.13
2023-11-01T17:25:54.417Z,83.33
2023-11-01T17:28:35.799Z,82.68
2023-11-01T17:31:15.771Z,79.78
2023-11-01T17:33:45.881Z,80.49
2023-11-01T17:36:21.268Z,80.44
2023-11-01T17:38:49.085Z,80.76
2023-11-01T17:41:51.592Z,80.67
2023-11-01T17:44:21.074Z,81.12
2023-11-01T17:46:48.447Z,80.34
2023-11-01T17:49:48.768Z,81.61
2023-11-01T17:52:30.277Z,77.99
2023-11-01T17:54:59.084Z,81.36
2023-11-01T17:57:26.563Z,78.70
2023-11-01T17:59:55.930Z,78.72
2023-11-01T18:02:32.618Z,80.52
2023-11-01T18:05:01.899Z,79.34
2023-11-01T18:07:29.429Z,81.98
2023-11-01T18:09:58.740Z,79.86
2023-11-01T18:12:31.914Z,78.87
2023-11-01T18:14:59.699Z,77.79
2023-11-01T18:17:33.183Z,78.07
2023-11-01T18:20:10.994Z,78.58
2023-11-01T18:23:00.043Z,80.04
2023-11-01T18:25:30.737Z,79.55
2023-11-01T18:28:02.054Z,77.82
2023-11-01T18:30:29.850Z,78.23
2023-11-01T18:32:58.932Z,80.34
2023-11-01T18:35:31.306Z,80.59
2023-11-01T18:37:58.684Z,81.12
2023-11-01T18:40:27.500Z,80.04
2023-11-01T18:42:58.823Z,80.20
2023-11-01T18:45:26.699Z,79.04
2023-11-01T18:47:55.820Z,78.82
2023-11-01T18:50:23.920Z,80.07
2023-11-01T18:52:51.320Z,79.04
2023-11-01T18:55:33.286Z,79.43
2023-11-01T18:58:00.697Z,79.90
2023-11-01T19:00:29.038Z,80.09
2023-11-01T19:03:09.318Z,82.57
2023-11-01T19:05:41.269Z,84.71
2023-11-01T19:08:10.960Z,86.08
2023-11-01T19:10:41.422Z,87.75
2023-11-01T19:13:09.413Z,88.86
2023-11-01T19:15:38.188Z,88.89
2023-11-01T19:18:11.028Z,89.49
2023-11-01T19:20:50.758Z,89.92
2023-11-01T19:23:18.604Z,89.24
2023-11-01T19:25:47.847Z,88.68
2023-11-01T19:28:15.944Z,89.27
2023-11-01T19:30:44.413Z,88.38
2023-11-01T19:33:22.510Z,88.91
2023-11-01T19:36:02.005Z,87.97
2023-11-01T19:38:36.178Z,88.49
2023-11-01T19:41:07.300Z,87.68
2023-11-01T19:43:38.230Z,87.67
2023-11-01T19:46:08.249Z,87.87
2023-11-01T19:48:38.520Z,87.99
2023-11-01T19:51:10.707Z,87.34
2023-11-01T19:53:37.976Z,86.62
2023-11-01T19:56:05.694Z,86.01
2023-11-01T19:58:34.004Z,85.06
2023-11-01T20:01:03.195Z,85.79
2023-11-01T20:03:49.367Z,86.67
2023-11-01T20:06:17.733Z,86.58
2023-11-01T20:08:45.768Z,86.10
2023-11-01T20:11:14.026Z,86.45
2023-11-01T20:13:41.854Z,87.75
2023-11-01T20:16:15.629Z,88.50
2023-11-01T20:18:50.639Z,89.16
2023-11-01T20:21:18.521Z,88.77
2023-11-01T20:23:45.965Z,89.27
2023-11-01T20:26:13.621Z,89.38
2023-11-01T20:28:40.890Z,90.78
2023-11-01T20:31:10.968Z,91.21
2023-11-01T20:33:38.457Z,91.19
2023-11-01T20:36:06.926Z,90.85
2023-11-01T20:38:35.598Z,91.90
2023-11-01T20:41:04.612Z,92.65
2023-11-01T20:43:33.228Z,91.49
2023-11-01T20:46:01.329Z,91.86
2023-11-01T20:48:31.441Z,91.64
2023-11-01T20:50:59.610Z,92.32
2023-11-01T20:53:28.573Z,91.56
2023-11-01T20:55:57.394Z,91.21
2023-11-01T20:58:28.793Z,92.88
2023-11-01T21:00:59.660Z,92.65
2023-11-01T21:03:27.952Z,92.13
2023-11-01T21:05:55.988Z,91.97
2023-11-01T21:08:23.363Z,91.12
2023-11-01T21:10:53.256Z,94.61
2023-11-01T21:13:20.628Z,93.26
2023-11-01T21:15:50.094Z,94.79
2023-11-01T21:18:20.678Z,92.12
2023-11-01T21:20:49.703Z,92.90
2023-11-01T21:23:19.197Z,93.64
2023-11-01T21:25:50.051Z,93.50
2023-11-01T21:28:17.478Z,93.29
2023-11-01T21:30:45.225Z,94.56
2023-11-01T21:33:12.762Z,94.33
2023-11-01T21:35:43.548Z,93.58
2023-11-01T21:38:11.692Z,97.13
2023-11-01T21:40:40.342Z,95.57
2023-11-01T21:43:10.468Z,98.06
2023-11-01T21:45:50.158Z,96.70
2023-11-01T21:48:24.244Z,91.84
2023-11-01T21:51:03.726Z,90.17
2023-11-01T21:53:34.151Z,90.01
2023-11-01T21:56:02.202Z,89.41
2023-11-01T21:58:35.133Z,89.70
2023-11-01T22:01:07.742Z,88.56
2023-11-01T22:03:38.623Z,88.53
2023-11-01T22:06:30.513Z,88.45
2023-11-01T22:09:19.741Z,88.58
2023-11-01T22:11:51.689Z,89.61
2023-11-01T22:14:46.103Z,89.38
2023-11-01T22:17:42.742Z,89.48
2023-11-01T22:20:24.261Z,90.07
2023-11-01T22:23:01.317Z,90.45
2023-11-01T22:25:45.439Z,90.44
2023-11-01T22:28:15.513Z,90.04
2023-11-01T22:30:42.851Z,90.93
2023-11-01T22:33:14.593Z,91.06
2023-11-01T22:35:44.228Z,91.98
2023-11-01T22:38:14.839Z,92.40
2023-11-01T22:40:44.170Z,91.36
2023-11-01T22:43:15.278Z,91.15
2023-11-01T22:45:43.430Z,92.74
2023-11-01T22:48:13.512Z,91.67
2023-11-01T22:50:43.304Z,90.29
2023-11-01T22:53:13.013Z,92.80
2023-11-01T22:55:42.327Z,95.40
2023-11-01T22:58:11.261Z,96.47
2023-11-01T23:00:39.049Z,95.79
2023-11-01T23:03:07.853Z,97.09
2023-11-01T23:05:36.137Z,94.72
2023-11-01T23:08:04.189Z,93.40
2023-11-01T23:10:34.501Z,93.74
2023-11-01T23:13:02.164Z,95.13
2023-11-01T23:15:31.128Z,93.45
2023-11-01T23:17:59.211Z,93.09
2023-11-01T23:20:29.972Z,93.77
2023-11-01T23:22:59.443Z,94.96
2023-11-01T23:25:32.249Z,96.87
2023-11-01T23:28:08.109Z,98.80
2023-11-01T23:30:49.956Z,99.00
2023-11-01T23:33:17.935Z,100.00
2023-11-01T23:35:46.641Z,100.00
2023-11-01T23:38:17.771Z,100.00
2023-11-01T23:40:45.225Z,100.00
2023-11-01T23:43:15.391Z,100.00
2023-11-01T23:46:14.671Z,100.00
2023-11-01T23:48:44.714Z,100.00
2023-11-01T23:51:47.067Z,100.00
2023-11-01T23:54:21.413Z,100.00
2023-11-01T23:56:48.968Z,100.00
2023-11-01T23:59:18.594Z,100.00
